createdAt,value
2023-05-02T00:11:09.614Z,9.30
2023-05-02T00:18:30.982Z,9.20
2023-05-02T00:23:25.401Z,9.30
2023-05-02T00:25:52.213Z,9.20
2023-05-02T00:28:19.097Z,9.20
2023-05-02T00:30:46.888Z,9.00
2023-05-02T00:35:42.368Z,9.00
2023-05-02T00:38:09.400Z,9.00
2023-05-02T00:40:48.012Z,9.10
2023-05-02T00:43:16.201Z,9.00
2023-05-02T00:45:44.158Z,9.00
2023-05-02T00:48:12.125Z,8.90
2023-05-02T00:50:40.748Z,9.00
2023-05-02T00:53:09.323Z,9.00
2023-05-02T00:58:07.146Z,9.10
2023-05-02T01:00:57.266Z,9.20
2023-05-02T01:06:17.908Z,9.00
2023-05-02T01:08:52.856Z,9.10
2023-05-02T01:11:37.976Z,9.10
2023-05-02T01:14:08.859Z,9.10
2023-05-02T01:16:40.655Z,9.00
2023-05-02T01:19:12.562Z,8.90
2023-05-02T01:21:40.481Z,9.00
2023-05-02T01:24:14.324Z,9.00
2023-05-02T01:27:10.021Z,9.00
2023-05-02T01:29:39.161Z,8.80
2023-05-02T01:32:08.801Z,8.80
2023-05-02T01:34:38.817Z,8.90
2023-05-02T01:37:07.170Z,8.90
2023-05-02T01:39:36.706Z,8.80
2023-05-02T01:42:05.102Z,8.80
2023-05-02T01:44:34.437Z,8.70
2023-05-02T01:47:05.464Z,8.70
2023-05-02T01:49:34.973Z,8.80
2023-05-02T01:52:08.498Z,8.70
2023-05-02T01:54:37.080Z,8.70
2023-05-02T01:57:07.530Z,8.70
2023-05-02T01:59:37.037Z,8.60
2023-05-02T02:02:06.296Z,8.80
2023-05-02T02:04:35.459Z,8.70
2023-05-02T02:07:07.313Z,8.70
2023-05-02T02:12:12.770Z,8.80
2023-05-02T02:14:46.493Z,8.80
2023-05-02T02:17:25.694Z,8.70
2023-05-02T02:19:56.232Z,8.70
2023-05-02T02:22:26.709Z,8.70
2023-05-02T02:24:54.695Z,8.70
2023-05-02T02:37:20.669Z,8.50
2023-05-02T02:40:02.182Z,8.40
2023-05-02T02:42:39.934Z,8.50
2023-05-02T02:45:27.277Z,8.40
2023-05-02T02:48:02.630Z,8.40
2023-05-02T02:50:54.177Z,8.30
2023-05-02T02:53:27.626Z,8.40
2023-05-02T02:56:11.200Z,8.50
2023-05-02T02:58:50.757Z,8.50
2023-05-02T03:01:22.035Z,8.50
2023-05-02T03:03:51.435Z,8.50
2023-05-02T03:06:19.510Z,8.60
2023-05-02T03:11:13.705Z,8.50
2023-05-02T03:13:40.575Z,8.50
2023-05-02T03:16:36.885Z,8.50
2023-05-02T03:19:04.735Z,8.40
2023-05-02T03:21:32.303Z,8.50
2023-05-02T03:24:03.192Z,8.50
2023-05-02T03:26:30.534Z,8.50
2023-05-02T03:28:57.612Z,8.50
2023-05-02T03:31:26.562Z,8.50
2023-05-02T03:36:21.516Z,8.50
2023-05-02T03:38:48.699Z,8.50
2023-05-02T03:41:15.615Z,8.50
2023-05-02T03:43:42.506Z,8.40
2023-05-02T03:46:11.875Z,8.50
2023-05-02T03:48:38.919Z,8.60
2023-05-02T03:51:08.339Z,8.50
2023-05-02T03:53:35.551Z,8.60
2023-05-02T03:56:02.524Z,8.70
2023-05-02T04:00:56.713Z,8.70
2023-05-02T04:03:24.634Z,8.60
2023-05-02T04:05:51.850Z,8.90
2023-05-02T04:08:19.444Z,8.70
2023-05-02T04:10:46.669Z,8.80
2023-05-02T04:13:13.512Z,8.90
2023-05-02T04:18:07.784Z,8.90
2023-05-02T04:20:35.094Z,9.10
2023-05-02T04:23:02.182Z,9.00
2023-05-02T04:27:56.727Z,9.30
2023-05-02T04:30:23.575Z,9.30
2023-05-02T04:32:50.966Z,9.20
2023-05-02T04:35:18.063Z,9.30
2023-05-02T04:37:44.955Z,9.30
2023-05-02T04:40:12.556Z,9.30
2023-05-02T04:42:39.415Z,9.30
2023-05-02T04:45:07.429Z,9.30
2023-05-02T04:47:34.347Z,9.30
2023-05-02T04:52:30.547Z,9.40
2023-05-02T04:54:57.496Z,9.40
2023-05-02T04:59:51.628Z,9.50
2023-05-02T05:04:46.134Z,9.50
2023-05-02T05:12:07.703Z,9.90
2023-05-02T05:14:34.967Z,9.80
2023-05-02T05:24:23.518Z,10.40
2023-05-02T05:26:50.319Z,10.40
2023-05-02T05:29:18.337Z,10.40
2023-05-02T05:31:45.246Z,10.50
2023-05-02T05:36:40.979Z,10.80
2023-05-02T05:41:35.279Z,11.10
2023-05-02T05:44:02.121Z,11.10
2023-05-02T05:48:56.225Z,11.50
2023-05-02T05:56:18.302Z,11.90
2023-05-02T06:01:12.718Z,12.10
2023-05-02T06:03:39.685Z,12.10
2023-05-02T06:06:06.915Z,12.30
2023-05-02T06:08:34.163Z,12.30
2023-05-02T06:11:01.060Z,12.50
2023-05-02T06:13:27.922Z,12.60
2023-05-02T06:15:54.779Z,12.60
2023-05-02T06:18:23.146Z,12.60
2023-05-02T06:20:49.980Z,12.90
2023-05-02T06:25:43.972Z,13.00
2023-05-02T06:28:10.866Z,13.10
2023-05-02T06:30:37.700Z,13.20
2023-05-02T06:33:05.292Z,13.20
2023-05-02T06:35:32.210Z,13.50
2023-05-02T06:37:59.201Z,13.60
2023-05-02T06:40:26.039Z,13.70
2023-05-02T06:42:52.873Z,13.80
2023-05-02T06:45:19.696Z,13.90
2023-05-02T06:47:46.817Z,14.00
2023-05-02T06:50:13.692Z,14.20
2023-05-02T06:52:40.516Z,14.40
2023-05-02T06:55:07.729Z,14.60
2023-05-02T06:57:34.634Z,14.90
2023-05-02T07:00:01.836Z,14.90
2023-05-02T07:02:29.079Z,15.40
2023-05-02T07:04:55.967Z,15.40
2023-05-02T07:07:22.842Z,15.90
2023-05-02T07:09:49.658Z,15.90
2023-05-02T07:12:16.681Z,16.10
2023-05-02T07:14:43.699Z,16.60
2023-05-02T07:17:10.618Z,17.00
2023-05-02T07:19:37.637Z,17.20
2023-05-02T07:22:04.508Z,17.10
2023-05-02T07:24:31.586Z,17.30
2023-05-02T07:26:58.873Z,17.10
2023-05-02T07:29:26.095Z,17.80
2023-05-02T07:31:53.063Z,18.10
2023-05-02T07:34:19.954Z,18.60
2023-05-02T07:36:46.775Z,19.20
2023-05-02T07:39:13.779Z,18.70
2023-05-02T07:41:40.649Z,19.20
2023-05-02T07:44:07.488Z,18.90
2023-05-02T07:46:34.350Z,19.20
2023-05-02T07:49:01.348Z,20.30
2023-05-02T07:51:28.199Z,20.30
2023-05-02T07:53:58.545Z,20.60
2023-05-02T07:56:25.914Z,20.70
2023-05-02T07:58:52.934Z,20.00
2023-05-02T08:01:20.396Z,20.30
2023-05-02T08:03:48.842Z,20.30
2023-05-02T08:06:16.174Z,20.10
2023-05-02T08:08:43.126Z,21.00
2023-05-02T08:11:09.992Z,20.60
2023-05-02T08:13:36.829Z,20.30
2023-05-02T08:16:03.885Z,20.70
2023-05-02T08:18:30.811Z,20.60
2023-05-02T08:21:00.527Z,20.40
2023-05-02T08:23:27.437Z,20.30
2023-05-02T08:25:55.067Z,21.00
2023-05-02T08:28:21.869Z,21.00
2023-05-02T08:30:49.178Z,21.00
2023-05-02T08:33:16.324Z,21.40
2023-05-02T08:35:43.237Z,22.10
2023-05-02T08:38:10.102Z,21.90
2023-05-02T08:40:42.043Z,21.40
2023-05-02T08:43:11.995Z,21.80
2023-05-02T08:45:44.002Z,21.10
2023-05-02T08:48:16.586Z,21.70
2023-05-02T08:50:45.736Z,21.90
2023-05-02T08:53:14.504Z,22.10
2023-05-02T08:55:42.575Z,22.40
2023-05-02T08:58:11.310Z,21.90
2023-05-02T09:00:42.337Z,22.40
2023-05-02T09:03:26.814Z,22.70
2023-05-02T09:05:56.880Z,23.30
2023-05-02T09:08:24.530Z,22.40
2023-05-02T09:10:51.941Z,22.30
2023-05-02T09:13:44.061Z,22.60
2023-05-02T09:16:15.975Z,22.60
2023-05-02T09:18:48.807Z,22.70
2023-05-02T09:21:19.657Z,22.70
2023-05-02T09:23:48.960Z,22.90
2023-05-02T09:26:25.127Z,23.20
2023-05-02T09:28:54.384Z,23.10
2023-05-02T09:33:53.828Z,22.80
2023-05-02T09:36:21.798Z,23.10
2023-05-02T09:38:50.984Z,23.30
2023-05-02T09:41:22.589Z,23.20
2023-05-02T09:43:58.251Z,23.50
2023-05-02T09:46:25.369Z,23.20
2023-05-02T09:48:54.365Z,23.50
2023-05-02T09:51:22.233Z,23.40
2023-05-02T09:53:49.902Z,24.00
2023-05-02T09:56:17.408Z,24.10
2023-05-02T09:58:44.666Z,23.60
2023-05-02T10:01:19.371Z,24.20
2023-05-02T10:03:48.789Z,23.70
2023-05-02T10:06:19.601Z,23.30
2023-05-02T10:08:47.539Z,23.30
2023-05-02T10:11:15.227Z,23.20
2023-05-02T10:13:44.301Z,23.80
2023-05-02T10:16:13.507Z,24.60
2023-05-02T10:18:56.741Z,23.40
2023-05-02T10:21:30.376Z,23.40
2023-05-02T10:23:57.910Z,22.70
2023-05-02T10:26:24.976Z,22.40
2023-05-02T10:28:52.242Z,22.00
2023-05-02T10:31:19.723Z,22.10
2023-05-02T10:33:50.828Z,22.20
2023-05-02T10:36:22.505Z,21.40
2023-05-02T10:38:51.182Z,21.50
2023-05-02T10:41:23.091Z,21.50
2023-05-02T10:43:50.612Z,21.30
2023-05-02T10:46:41.404Z,21.30
2023-05-02T10:49:09.769Z,20.70
2023-05-02T10:51:38.192Z,20.90
2023-05-02T10:54:34.861Z,20.90
2023-05-02T10:57:08.476Z,21.00
2023-05-02T10:59:39.512Z,21.30
2023-05-02T11:02:28.225Z,21.30
2023-05-02T11:05:08.323Z,21.90
2023-05-02T11:07:37.080Z,21.50
2023-05-02T11:10:25.091Z,21.60
2023-05-02T11:12:56.736Z,22.10
2023-05-02T11:15:29.759Z,22.00
2023-05-02T11:18:01.526Z,21.80
2023-05-02T11:22:58.227Z,21.10
2023-05-02T11:25:32.748Z,21.50
2023-05-02T11:28:00.053Z,21.30
2023-05-02T11:30:43.929Z,21.10
2023-05-02T11:33:17.288Z,21.40
2023-05-02T11:35:45.589Z,21.20
2023-05-02T11:38:15.327Z,21.10
2023-05-02T11:40:54.253Z,21.10
2023-05-02T11:43:21.994Z,21.40
2023-05-02T11:45:49.200Z,21.80
2023-05-02T11:48:20.796Z,21.80
2023-05-02T11:50:52.844Z,21.20
2023-05-02T11:53:25.023Z,21.10
2023-05-02T11:55:51.877Z,21.00
2023-05-02T11:58:20.924Z,20.90
2023-05-02T12:00:49.605Z,21.10
2023-05-02T12:03:31.506Z,21.30
2023-05-02T12:06:12.677Z,21.50
2023-05-02T12:08:41.079Z,21.50
2023-05-02T12:11:09.268Z,21.80
2023-05-02T12:13:48.325Z,21.90
2023-05-02T12:16:15.976Z,21.90
2023-05-02T12:18:43.289Z,22.00
2023-05-02T12:21:10.487Z,22.00
2023-05-02T12:23:37.944Z,21.80
2023-05-02T12:26:33.083Z,21.90
2023-05-02T12:29:02.034Z,22.00
2023-05-02T12:31:31.257Z,21.80
2023-05-02T12:34:00.423Z,21.80
2023-05-02T12:36:28.735Z,22.10
2023-05-02T12:38:59.682Z,21.90
2023-05-02T12:41:38.725Z,22.00
2023-05-02T12:44:07.261Z,21.90
2023-05-02T12:46:34.307Z,21.50
2023-05-02T12:49:09.963Z,21.80
2023-05-02T12:51:38.165Z,22.10
2023-05-02T12:54:05.739Z,22.10
2023-05-02T12:56:43.852Z,22.20
2023-05-02T12:59:28.959Z,23.20
2023-05-02T13:01:56.020Z,23.30
2023-05-02T13:04:33.286Z,23.50
2023-05-02T13:07:00.418Z,23.30
2023-05-02T13:09:27.379Z,23.20
2023-05-02T13:11:54.287Z,23.30
2023-05-02T13:14:21.322Z,22.60
2023-05-02T13:16:50.138Z,22.20
2023-05-02T13:19:17.055Z,21.90
2023-05-02T13:21:43.918Z,21.90
2023-05-02T13:24:10.849Z,21.80
2023-05-02T13:26:37.664Z,22.10
2023-05-02T13:29:04.671Z,22.90
2023-05-02T13:31:31.554Z,22.90
2023-05-02T13:33:58.490Z,22.90
2023-05-02T13:36:25.548Z,23.00
2023-05-02T13:38:52.420Z,22.90
2023-05-02T13:41:19.304Z,22.70
2023-05-02T13:43:47.025Z,22.70
2023-05-02T13:46:14.408Z,22.60
2023-05-02T13:48:41.487Z,22.90
2023-05-02T13:51:08.540Z,23.00
2023-05-02T13:53:35.962Z,23.30
2023-05-02T13:56:02.784Z,23.20
2023-05-02T13:58:29.647Z,23.20
2023-05-02T14:00:56.955Z,23.10
2023-05-02T14:03:23.824Z,23.40
2023-05-02T14:05:51.138Z,23.40
2023-05-02T14:08:19.255Z,23.50
2023-05-02T14:10:46.371Z,23.80
2023-05-02T14:13:13.230Z,23.90
2023-05-02T14:15:40.190Z,23.90
2023-05-02T14:18:07.246Z,24.00
2023-05-02T14:20:34.095Z,23.70
2023-05-02T14:23:01.294Z,23.60
2023-05-02T14:25:28.131Z,23.90
2023-05-02T14:27:54.964Z,23.60
2023-05-02T14:30:21.835Z,23.30
2023-05-02T14:32:48.675Z,22.90
2023-05-02T14:37:45.124Z,22.20
2023-05-02T14:40:12.457Z,22.10
2023-05-02T14:42:39.725Z,21.70
2023-05-02T14:45:08.263Z,21.70
2023-05-02T14:47:35.248Z,21.80
2023-05-02T14:50:04.810Z,21.70
2023-05-02T14:52:32.253Z,21.90
2023-05-02T14:55:02.777Z,22.00
2023-05-02T14:57:29.696Z,21.70
2023-05-02T14:59:57.071Z,21.50
2023-05-02T15:02:23.967Z,21.20
2023-05-02T15:04:51.225Z,21.20
2023-05-02T15:07:18.524Z,21.20
2023-05-02T15:09:45.704Z,21.20
2023-05-02T15:12:12.759Z,21.40
2023-05-02T15:14:39.585Z,21.20
2023-05-02T15:17:06.440Z,21.40
2023-05-02T15:19:33.328Z,21.40
2023-05-02T15:22:00.214Z,21.30
2023-05-02T15:24:27.263Z,21.00
2023-05-02T15:26:54.143Z,21.00
2023-05-02T15:29:20.993Z,20.70
2023-05-02T15:31:47.856Z,20.70
2023-05-02T15:34:15.538Z,20.70
2023-05-02T15:36:43.240Z,20.60
2023-05-02T15:39:10.158Z,20.60
2023-05-02T15:41:37.003Z,20.50
2023-05-02T15:44:04.091Z,20.60
2023-05-02T15:46:31.067Z,20.60
2023-05-02T15:48:58.041Z,20.30
2023-05-02T15:51:25.295Z,20.00
2023-05-02T15:53:52.677Z,20.00
2023-05-02T15:56:21.541Z,19.90
2023-05-02T15:58:48.638Z,19.70
2023-05-02T16:01:15.669Z,19.70
2023-05-02T16:03:42.651Z,19.40
2023-05-02T16:06:10.042Z,19.40
2023-05-02T16:08:36.868Z,19.30
2023-05-02T16:11:03.784Z,19.30
2023-05-02T16:13:30.663Z,19.10
2023-05-02T16:15:57.744Z,19.10
2023-05-02T16:20:59.466Z,19.00
2023-05-02T16:23:26.601Z,19.10
2023-05-02T16:26:01.122Z,18.90
2023-05-02T16:30:55.651Z,18.50
2023-05-02T16:33:22.675Z,18.50
2023-05-02T16:38:16.939Z,18.20
2023-05-02T16:40:43.860Z,18.00
2023-05-02T16:43:10.715Z,17.80
2023-05-02T16:48:05.852Z,17.50
2023-05-02T16:50:32.699Z,17.50
2023-05-02T16:57:54.276Z,17.10
2023-05-02T17:02:48.793Z,16.90
2023-05-02T17:05:16.728Z,17.00
2023-05-02T17:07:43.569Z,16.80
2023-05-02T17:10:11.762Z,16.80
2023-05-02T17:17:34.384Z,15.60
2023-05-02T17:24:56.751Z,13.80
2023-05-02T17:29:51.162Z,13.30
2023-05-02T17:34:45.304Z,12.80
2023-05-02T17:37:12.509Z,12.80
2023-05-02T17:42:07.292Z,12.40
2023-05-02T17:47:04.889Z,12.40
2023-05-02T17:49:33.465Z,12.40
2023-05-02T17:52:00.244Z,12.40
2023-05-02T17:54:27.074Z,12.40
2023-05-02T17:59:23.028Z,12.40
2023-05-02T18:14:08.035Z,12.60
2023-05-02T18:16:36.417Z,12.80
2023-05-02T18:21:32.818Z,12.60
2023-05-02T18:28:54.327Z,12.70
2023-05-02T18:31:21.488Z,12.80
2023-05-02T18:33:48.411Z,12.80
2023-05-02T18:38:46.761Z,12.70
2023-05-02T18:41:13.546Z,12.70
2023-05-02T18:46:08.932Z,12.60
2023-05-02T18:51:03.240Z,12.70
2023-05-02T18:58:24.899Z,13.10
2023-05-02T19:00:51.706Z,13.10
2023-05-02T19:05:46.074Z,13.40
2023-05-02T19:08:13.134Z,13.40
2023-05-02T19:13:07.164Z,13.20
2023-05-02T19:20:30.255Z,12.90
2023-05-02T19:23:15.158Z,12.90
2023-05-02T19:25:45.476Z,12.90
2023-05-02T19:28:14.115Z,12.90
2023-05-02T19:30:41.743Z,12.80
2023-05-02T19:33:08.986Z,12.90
2023-05-02T19:35:36.590Z,13.00
2023-05-02T19:40:31.099Z,12.90
2023-05-02T19:50:19.946Z,13.10
2023-05-02T19:52:46.768Z,13.10
2023-05-02T19:55:13.810Z,12.00
2023-05-02T19:57:41.397Z,13.00
2023-05-02T20:00:08.741Z,12.90
2023-05-02T20:02:35.678Z,13.00
2023-05-02T20:05:02.781Z,13.10
2023-05-02T20:07:29.578Z,13.10
2023-05-02T20:12:24.158Z,13.00
2023-05-02T20:22:12.950Z,13.00
2023-05-02T20:36:56.242Z,12.90
2023-05-02T20:44:20.379Z,12.80
2023-05-02T20:59:03.425Z,12.70
2023-05-02T21:03:57.744Z,12.80
2023-05-02T21:06:24.735Z,12.90
2023-05-02T21:16:18.612Z,12.90
2023-05-02T21:18:46.690Z,13.00
2023-05-02T21:21:13.944Z,12.80
2023-05-02T21:23:40.736Z,12.70
2023-05-02T21:26:08.111Z,12.70
2023-05-02T21:28:35.031Z,12.80
2023-05-02T21:31:02.221Z,12.70
2023-05-02T21:33:29.122Z,12.70
2023-05-02T21:35:59.220Z,12.80
2023-05-02T21:38:27.021Z,12.70
2023-05-02T21:45:50.237Z,12.70
2023-05-02T21:48:17.574Z,12.70
2023-05-02T21:50:45.174Z,12.80
2023-05-02T21:53:13.177Z,12.90
2023-05-02T21:55:41.085Z,12.80
2023-05-02T21:58:09.983Z,12.80
2023-05-02T22:03:46.470Z,13.10
2023-05-02T22:06:13.607Z,13.10
2023-05-02T22:11:09.479Z,13.40
2023-05-02T22:13:36.951Z,13.40
2023-05-02T22:18:31.249Z,13.30
2023-05-02T22:25:53.158Z,13.20
2023-05-02T22:28:20.383Z,13.20
2023-05-02T22:38:09.323Z,12.60
2023-05-02T22:40:36.348Z,12.70
2023-05-02T22:43:03.203Z,12.80
2023-05-02T22:47:57.645Z,12.60
2023-05-02T22:52:57.216Z,12.80
2023-05-02T22:57:51.851Z,12.80
2023-05-02T23:00:18.766Z,12.80
2023-05-02T23:02:45.896Z,12.70
2023-05-02T23:05:12.946Z,12.60
2023-05-02T23:10:07.950Z,12.70
2023-05-02T23:12:34.765Z,12.70
2023-05-02T23:17:29.375Z,12.80
2023-05-02T23:19:57.295Z,12.70
2023-05-02T23:27:18.758Z,12.70
2023-05-02T23:29:48.164Z,12.70
2023-05-02T23:32:16.458Z,12.70
2023-05-02T23:34:43.903Z,12.60
2023-05-02T23:37:11.653Z,12.50
2023-05-02T23:39:38.695Z,12.50
2023-05-02T23:56:49.622Z,12.60
